Time;durP1;ratioP1;P1;durP2;ratioP2;P2;SDS_P1;SDS_P2;PMS_P1;PMS_P2;Temp;Humidity;BMP_temperature;BMP_pressure;BME280_temperature;BME280_humidity;BME280_pressure;Samples;Min_cycle;Max_cycle;Signal;HPM_P1;HPM_P2
2023/02/12 00:02:19;;;;;;;6.70;4.43;;;5.90;99.90;;;;;;5049320;28;20682;-69
2023/02/12 00:05:06;;;;;;;4.07;3.33;;;6.00;99.90;;;;;;5051872;28;20224;-69
2023/02/12 00:07:56;;;;;;;6.90;3.90;;;5.90;99.90;;;;;;5043819;28;20522;-69
2023/02/12 00:10:44;;;;;;;7.28;4.97;;;6.00;99.90;;;;;;5048987;28;20666;-69
2023/02/12 00:13:31;;;;;;;8.82;4.50;;;5.90;99.90;;;;;;5046858;28;20224;-69
2023/02/12 00:16:21;;;;;;;7.13;4.40;;;5.90;99.90;;;;;;5047707;28;20223;-69
2023/02/12 00:19:09;;;;;;;5.75;4.00;;;6.00;99.90;;;;;;5059127;28;20227;-69
2023/02/12 00:21:57;;;;;;;6.55;4.53;;;6.00;99.90;;;;;;5059888;28;20208;-69
2023/02/12 00:24:45;;;;;;;5.30;4.10;;;6.00;99.90;;;;;;5051820;28;20633;-69
2023/02/12 00:27:33;;;;;;;7.03;4.82;;;6.00;99.90;;;;;;5049675;28;20216;-69
2023/02/12 00:30:23;;;;;;;6.70;4.80;;;6.00;99.90;;;;;;5048057;28;20236;-69
2023/02/12 00:33:13;;;;;;;6.13;4.50;;;6.00;99.90;;;;;;5049927;28;20720;-69
2023/02/12 00:36:00;;;;;;;7.13;4.53;;;6.00;99.90;;;;;;5066551;28;20222;-69
2023/02/12 00:38:48;;;;;;;6.05;4.82;;;6.00;99.90;;;;;;5051904;28;20227;-69
2023/02/12 00:41:37;;;;;;;6.60;4.35;;;6.00;99.90;;;;;;5064210;28;20292;-69
2023/02/12 00:44:25;;;;;;;5.03;3.60;;;6.00;99.90;;;;;;5054836;28;20243;-69
2023/02/12 00:47:15;;;;;;;6.38;4.40;;;6.00;99.90;;;;;;5068648;28;20208;-69
2023/02/12 00:50:02;;;;;;;6.18;4.20;;;6.00;99.90;;;;;;5060990;28;20218;-69
2023/02/12 00:52:49;;;;;;;6.13;5.20;;;6.00;99.90;;;;;;5041395;28;20275;-69
2023/02/12 00:55:37;;;;;;;6.63;4.20;;;6.00;99.90;;;;;;5065397;28;20219;-69
2023/02/12 00:58:25;;;;;;;7.03;4.50;;;6.00;99.90;;;;;;5064861;28;20223;-69
2023/02/12 01:01:13;;;;;;;4.90;4.35;;;6.00;99.90;;;;;;5045670;28;20222;-69
2023/02/12 01:03:59;;;;;;;10.35;5.13;;;6.00;99.90;;;;;;5047766;28;20232;-69
2023/02/12 01:06:46;;;;;;;7.35;4.40;;;6.00;99.90;;;;;;5049610;28;20374;-69
2023/02/12 01:09:33;;;;;;;6.75;4.70;;;6.00;99.90;;;;;;5050488;28;20302;-69
2023/02/12 01:12:21;;;;;;;7.38;5.20;;;6.00;99.90;;;;;;5043393;28;20340;-69
2023/02/12 01:15:10;;;;;;;8.65;5.18;;;6.00;99.90;;;;;;5049363;28;20235;-69
2023/02/12 01:17:57;;;;;;;7.35;4.68;;;6.00;99.90;;;;;;5034998;28;20221;-69
2023/02/12 01:20:44;;;;;;;4.60;4.10;;;6.00;99.90;;;;;;5043477;28;20216;-69
2023/02/12 01:23:31;;;;;;;5.93;3.90;;;6.00;99.90;;;;;;5052152;28;20572;-69
2023/02/12 01:26:20;;;;;;;6.78;4.15;;;6.00;99.90;;;;;;5048296;28;20225;-69
2023/02/12 01:29:09;;;;;;;8.75;5.30;;;6.00;99.90;;;;;;5044447;28;20524;-69
2023/02/12 01:31:57;;;;;;;6.32;4.65;;;6.00;99.90;;;;;;5042711;28;20631;-69
2023/02/12 01:34:45;;;;;;;5.25;4.30;;;6.00;99.90;;;;;;5047695;28;20219;-69
2023/02/12 01:37:35;;;;;;;4.90;4.18;;;6.00;99.90;;;;;;5043371;28;20216;-69
2023/02/12 01:40:22;;;;;;;7.25;4.20;;;6.00;99.90;;;;;;5043058;28;20234;-69
2023/02/12 01:43:12;;;;;;;6.00;4.10;;;6.00;99.90;;;;;;5049629;28;20215;-69
2023/02/12 01:46:00;;;;;;;5.90;4.68;;;6.00;99.90;;;;;;5043067;28;20221;-69
2023/02/12 01:48:49;;;;;;;11.48;5.78;;;6.00;99.90;;;;;;5040803;28;20497;-69
2023/02/12 01:51:36;;;;;;;5.85;4.10;;;6.00;99.90;;;;;;5048735;28;20219;-69
2023/02/12 01:54:25;;;;;;;5.07;3.88;;;6.00;99.90;;;;;;5061250;28;20236;-69
2023/02/12 01:57:14;;;;;;;7.82;4.25;;;6.00;99.90;;;;;;5048838;28;20227;-69
2023/02/12 02:00:05;;;;;;;6.40;4.65;;;6.00;99.90;;;;;;5063336;28;20274;-69
2023/02/12 02:03:01;;;;;;;5.07;3.70;;;6.00;99.90;;;;;;5055314;28;20596;-69
2023/02/12 02:05:56;;;;;;;7.43;3.95;;;6.00;99.90;;;;;;5047132;28;20226;-69
2023/02/12 02:08:45;;;;;;;7.30;4.30;;;6.00;99.90;;;;;;5042264;28;20204;-69
2023/02/12 02:14:38;;;;;;;5.20;4.70;;;6.00;99.90;;;;;;5047146;28;20597;-69
2023/02/12 02:17:41;;;;;;;6.38;5.57;;;6.00;99.90;;;;;;5063715;28;20341;-69
2023/02/12 02:20:52;;;;;;;7.20;4.72;;;6.00;99.90;;;;;;5041897;28;20625;-69
2023/02/12 02:24:10;;;;;;;6.22;4.30;;;6.00;99.90;;;;;;5050809;28;20217;-69
2023/02/12 02:27:15;;;;;;;5.35;3.85;;;6.00;99.90;;;;;;5041441;28;20320;-69
2023/02/12 02:30:36;;;;;;;4.90;3.35;;;6.00;99.90;;;;;;5058778;28;20369;-69
2023/02/12 02:33:34;;;;;;;5.70;4.20;;;6.00;99.90;;;;;;5045057;28;20228;-69
2023/02/12 02:36:28;;;;;;;6.47;4.45;;;6.00;99.90;;;;;;5047268;28;20596;-69
2023/02/12 02:39:19;;;;;;;8.32;3.90;;;6.00;99.90;;;;;;5050437;28;20231;-69
2023/02/12 02:42:15;;;;;;;6.47;5.00;;;6.00;99.90;;;;;;5045704;28;20239;-69
2023/02/12 02:45:10;;;;;;;5.43;4.40;;;6.00;99.90;;;;;;5045165;28;20231;-69
2023/02/12 02:48:02;;;;;;;5.20;4.40;;;6.00;99.90;;;;;;5046069;28;20579;-69
2023/02/12 02:50:54;;;;;;;5.97;3.97;;;6.00;99.90;;;;;;5040518;28;20203;-69
2023/02/12 02:53:45;;;;;;;5.18;3.65;;;6.00;99.90;;;;;;5049974;28;20226;-69
2023/02/12 02:56:37;;;;;;;4.43;3.40;;;6.00;99.90;;;;;;5056788;28;20295;-69
2023/02/12 02:59:30;;;;;;;6.88;4.20;;;6.00;99.90;;;;;;5065120;28;20363;-69
2023/02/12 03:02:22;;;;;;;6.05;4.07;;;6.00;99.90;;;;;;5064021;28;20223;-69
2023/02/12 03:05:17;;;;;;;5.30;4.45;;;6.00;99.90;;;;;;5062381;28;20708;-69
2023/02/12 03:08:11;;;;;;;6.80;4.68;;;6.00;99.90;;;;;;5046557;28;20228;-69
2023/02/12 03:11:03;;;;;;;6.68;4.20;;;6.00;99.90;;;;;;5050606;28;20707;-69
2023/02/12 03:13:55;;;;;;;7.32;4.93;;;6.00;99.90;;;;;;5054504;28;20306;-69
2023/02/12 03:16:50;;;;;;;5.22;4.28;;;6.00;99.90;;;;;;5050840;28;20217;-69
2023/02/12 03:19:42;;;;;;;6.43;4.30;;;6.00;99.90;;;;;;5048765;28;20309;-69
2023/02/12 03:22:34;;;;;;;7.10;5.47;;;6.00;99.90;;;;;;5040354;28;20582;-69
2023/02/12 03:25:25;;;;;;;5.95;4.97;;;6.00;99.90;;;;;;5038926;28;20228;-69
2023/02/12 03:28:17;;;;;;;6.40;5.18;;;6.00;99.90;;;;;;5052575;28;20223;-69
2023/02/12 03:31:13;;;;;;;4.80;3.50;;;6.00;99.90;;;;;;5045413;28;20347;-69
2023/02/12 03:34:09;;;;;;;7.32;4.65;;;6.00;99.90;;;;;;5040675;28;20274;-69
2023/02/12 03:36:59;;;;;;;5.30;3.78;;;6.00;99.90;;;;;;5047761;28;20205;-69
2023/02/12 03:39:53;;;;;;;5.97;4.15;;;6.00;99.90;;;;;;5042810;28;20664;-69
2023/02/12 03:42:48;;;;;;;3.85;3.33;;;6.00;99.90;;;;;;5051093;28;20211;-69
2023/02/12 03:45:44;;;;;;;4.97;3.80;;;6.00;99.90;;;;;;5065354;28;20225;-69
2023/02/12 03:48:36;;;;;;;5.18;4.28;;;6.00;99.90;;;;;;5048489;28;20661;-69
2023/02/12 03:51:28;;;;;;;5.57;4.30;;;6.00;99.90;;;;;;5052300;28;20214;-69
2023/02/12 03:54:19;;;;;;;5.43;3.88;;;6.00;99.90;;;;;;5051187;28;20243;-69
2023/02/12 03:57:13;;;;;;;4.65;4.00;;;6.00;99.90;;;;;;5044538;28;20220;-69
2023/02/12 04:00:05;;;;;;;6.63;4.80;;;6.00;99.90;;;;;;5054061;28;20846;-69
2023/02/12 04:03:00;;;;;;;5.10;3.72;;;6.00;99.90;;;;;;5064653;28;20204;-69
2023/02/12 04:05:47;;;;;;;6.53;3.90;;;6.00;99.90;;;;;;5053389;28;20228;-69
2023/02/12 04:08:35;;;;;;;7.60;3.78;;;6.00;99.90;;;;;;5036737;28;20247;-69
2023/02/12 04:11:34;;;;;;;6.45;4.22;;;6.00;99.90;;;;;;5052573;28;20228;-69
2023/02/12 04:14:27;;;;;;;7.72;4.72;;;6.00;99.90;;;;;;5036556;28;20227;-69
2023/02/12 04:17:22;;;;;;;5.22;3.80;;;6.00;99.90;;;;;;5053500;28;20708;-69
2023/02/12 04:20:16;;;;;;;4.43;3.67;;;6.00;99.90;;;;;;5048384;28;20252;-69
2023/02/12 04:23:13;;;;;;;4.78;3.20;;;6.00;99.90;;;;;;5046574;28;20216;-69
2023/02/12 04:26:09;;;;;;;6.10;3.90;;;6.00;99.90;;;;;;5055649;28;20720;-69
2023/02/12 04:29:05;;;;;;;4.85;3.63;;;6.10;99.90;;;;;;5045339;28;20686;-69
2023/02/12 04:31:58;;;;;;;5.32;4.07;;;6.00;99.90;;;;;;5051854;28;20743;-69
2023/02/12 04:34:52;;;;;;;4.60;3.50;;;6.00;99.90;;;;;;5042954;28;20241;-69
2023/02/12 04:37:42;;;;;;;5.40;4.55;;;6.00;99.90;;;;;;5067039;28;20759;-69
2023/02/12 04:40:32;;;;;;;4.70;3.83;;;6.10;99.90;;;;;;5041974;28;20279;-69
2023/02/12 04:43:28;;;;;;;4.63;3.53;;;6.00;99.90;;;;;;5051163;28;20210;-69
2023/02/12 04:46:14;;;;;;;4.20;3.40;;;6.10;99.90;;;;;;5053053;28;20228;-69
2023/02/12 04:49:03;;;;;;;4.75;3.65;;;6.00;99.90;;;;;;5044539;28;20228;-70
2023/02/12 04:51:51;;;;;;;3.90;3.00;;;6.00;99.90;;;;;;5052891;28;20217;-69
2023/02/12 04:54:38;;;;;;;5.88;4.07;;;6.00;99.90;;;;;;5050722;28;20232;-69
2023/02/12 04:57:25;;;;;;;6.90;4.65;;;6.00;99.90;;;;;;5046945;28;20245;-69
2023/02/12 05:00:14;;;;;;;5.22;3.38;;;6.00;99.90;;;;;;5030228;28;20311;-69
2023/02/12 05:03:02;;;;;;;4.22;3.55;;;6.10;99.90;;;;;;5057024;28;20292;-69
2023/02/12 05:05:52;;;;;;;4.45;3.40;;;6.00;99.90;;;;;;5044324;28;20644;-69
2023/02/12 05:08:39;;;;;;;5.38;4.03;;;6.00;99.90;;;;;;5050996;28;20341;-69
2023/02/12 05:11:26;;;;;;;6.72;4.20;;;6.00;99.90;;;;;;5060038;28;20729;-69
2023/02/12 05:14:13;;;;;;;5.00;3.95;;;6.00;99.90;;;;;;5050960;28;20228;-69
2023/02/12 05:17:00;;;;;;;5.35;4.25;;;6.10;99.90;;;;;;5062404;28;20191;-69
2023/02/12 05:19:49;;;;;;;5.53;3.72;;;6.10;99.90;;;;;;5069864;28;20247;-69
2023/02/12 05:22:38;;;;;;;5.75;4.10;;;6.00;99.90;;;;;;5050915;28;20281;-69
2023/02/12 05:25:25;;;;;;;5.13;3.70;;;6.00;99.90;;;;;;5051611;28;20598;-69
2023/02/12 05:28:13;;;;;;;4.95;3.45;;;6.10;99.90;;;;;;5061854;28;20208;-69
2023/02/12 05:31:01;;;;;;;4.03;3.45;;;6.00;99.90;;;;;;5044245;28;20593;-69
2023/02/12 05:33:49;;;;;;;5.05;3.50;;;6.10;99.90;;;;;;5045302;28;20304;-69
2023/02/12 05:36:36;;;;;;;5.30;3.70;;;6.10;99.90;;;;;;5048971;28;20330;-69
2023/02/12 05:39:28;;;;;;;5.05;3.88;;;6.00;99.90;;;;;;5049268;28;20739;-69
2023/02/12 05:42:14;;;;;;;5.00;3.67;;;6.00;99.90;;;;;;5045930;28;20221;-69
2023/02/12 05:45:02;;;;;;;4.55;3.95;;;6.00;99.90;;;;;;5044020;28;20703;-69
2023/02/12 05:47:49;;;;;;;5.13;4.55;;;6.00;99.90;;;;;;5063456;28;20265;-69
2023/02/12 05:50:36;;;;;;;5.20;3.97;;;6.00;99.90;;;;;;5079371;28;20224;-69
2023/02/12 05:53:27;;;;;;;4.25;3.85;;;6.10;99.90;;;;;;5051118;28;20224;-69
2023/02/12 05:56:18;;;;;;;6.05;3.63;;;6.10;99.90;;;;;;5043856;28;20724;-69
2023/02/12 05:59:07;;;;;;;3.65;3.30;;;6.10;99.90;;;;;;5039820;28;20623;-69
2023/02/12 06:01:54;;;;;;;5.85;3.67;;;6.00;99.90;;;;;;5049835;28;20784;-69
2023/02/12 06:04:41;;;;;;;5.07;3.63;;;6.00;99.90;;;;;;5046537;28;20232;-69
2023/02/12 06:07:29;;;;;;;6.05;4.10;;;6.00;99.90;;;;;;5051276;28;20213;-69
2023/02/12 06:10:15;;;;;;;7.07;4.00;;;6.00;99.90;;;;;;5042920;28;20233;-69
2023/02/12 06:13:04;;;;;;;3.10;2.80;;;6.10;99.90;;;;;;5048502;28;20830;-69
2023/02/12 06:15:51;;;;;;;5.53;4.20;;;6.10;99.90;;;;;;5059965;28;20228;-69
2023/02/12 06:18:39;;;;;;;5.28;4.07;;;6.00;99.90;;;;;;5044582;28;20626;-69
2023/02/12 06:21:27;;;;;;;5.75;3.85;;;6.00;99.90;;;;;;5045534;28;20211;-69
2023/02/12 06:24:15;;;;;;;4.68;3.45;;;6.10;99.90;;;;;;5046186;28;20244;-69
2023/02/12 06:27:02;;;;;;;4.63;3.55;;;6.00;99.90;;;;;;5050582;28;20565;-69
2023/02/12 06:29:50;;;;;;;5.75;3.50;;;6.10;99.90;;;;;;5050584;28;20219;-69
2023/02/12 06:32:37;;;;;;;6.15;3.35;;;6.00;99.90;;;;;;5041800;28;20216;-69
2023/02/12 06:35:25;;;;;;;6.63;4.25;;;6.10;99.90;;;;;;5041298;28;20231;-69
2023/02/12 06:38:14;;;;;;;4.20;3.60;;;6.00;99.90;;;;;;5049935;28;20278;-69
2023/02/12 06:41:02;;;;;;;5.65;3.83;;;6.10;99.90;;;;;;5045414;28;20219;-69
2023/02/12 06:43:49;;;;;;;5.47;3.90;;;6.10;99.90;;;;;;5053295;28;20227;-69
2023/02/12 06:46:38;;;;;;;5.78;4.90;;;6.10;99.90;;;;;;5050074;28;20675;-69
2023/02/12 06:49:25;;;;;;;5.57;4.28;;;6.10;99.90;;;;;;5045824;28;20302;-69
2023/02/12 06:52:14;;;;;;;3.72;3.05;;;6.00;99.90;;;;;;5048465;28;20203;-69
2023/02/12 06:55:01;;;;;;;5.15;3.45;;;6.10;99.90;;;;;;5042339;28;20715;-69
2023/02/12 06:57:48;;;;;;;5.28;3.25;;;6.10;99.90;;;;;;5049195;28;20685;-69
2023/02/12 07:00:35;;;;;;;9.32;5.75;;;6.00;99.90;;;;;;5050429;28;20274;-69
2023/02/12 07:03:24;;;;;;;5.22;3.67;;;6.10;99.90;;;;;;5061418;28;20600;-72
2023/02/12 07:06:11;;;;;;;6.88;4.85;;;6.10;99.90;;;;;;5046010;28;20318;-72
2023/02/12 07:08:59;;;;;;;6.68;3.88;;;6.10;99.90;;;;;;5058735;28;20248;-72
2023/02/12 07:11:46;;;;;;;4.35;3.80;;;6.10;99.90;;;;;;5049490;28;20201;-72
2023/02/12 07:14:33;;;;;;;3.60;3.00;;;6.10;99.90;;;;;;5050598;28;20231;-72
2023/02/12 07:17:20;;;;;;;4.50;3.35;;;6.00;99.90;;;;;;5048543;28;20228;-72
2023/02/12 07:20:12;;;;;;;3.80;3.20;;;6.10;99.90;;;;;;5048519;28;20236;-72
2023/02/12 07:22:59;;;;;;;4.70;3.20;;;6.00;99.90;;;;;;5049480;28;20217;-72
2023/02/12 07:25:55;;;;;;;3.72;3.38;;;6.00;99.90;;;;;;5047959;28;20239;-72
2023/02/12 07:28:43;;;;;;;4.13;2.88;;;6.00;99.90;;;;;;5047893;28;20230;-72
2023/02/12 07:31:30;;;;;;;5.07;3.70;;;6.10;99.90;;;;;;5069958;28;20690;-72
2023/02/12 07:34:18;;;;;;;4.15;3.50;;;6.00;99.90;;;;;;5051593;28;20231;-72
2023/02/12 07:37:07;;;;;;;3.90;3.22;;;6.10;99.90;;;;;;5051115;28;20225;-72
2023/02/12 07:39:55;;;;;;;4.50;3.20;;;6.10;99.90;;;;;;5049377;28;20233;-72
2023/02/12 07:42:43;;;;;;;3.80;3.10;;;6.00;99.90;;;;;;5065913;28;20216;-72
2023/02/12 07:45:30;;;;;;;3.50;3.20;;;6.10;99.90;;;;;;5052767;28;20227;-72
2023/02/12 07:48:18;;;;;;;4.10;3.30;;;6.10;99.90;;;;;;5042753;28;20240;-72
2023/02/12 07:51:06;;;;;;;8.20;4.75;;;6.10;99.90;;;;;;5061937;28;20216;-72
2023/02/12 07:53:55;;;;;;;5.20;3.47;;;6.10;99.90;;;;;;5049836;28;20227;-72
2023/02/12 07:56:45;;;;;;;4.57;3.40;;;6.10;99.90;;;;;;5060662;28;20224;-69
2023/02/12 07:59:32;;;;;;;3.92;3.17;;;6.10;99.90;;;;;;5049998;28;20263;-69
2023/02/12 08:02:19;;;;;;;6.20;3.83;;;6.00;99.90;;;;;;5047246;28;20235;-69
2023/02/12 08:05:08;;;;;;;4.20;3.80;;;6.10;99.90;;;;;;5067026;28;20231;-69
2023/02/12 08:07:54;;;;;;;4.80;3.85;;;6.10;99.90;;;;;;5054579;28;20754;-69
2023/02/12 08:10:43;;;;;;;4.35;3.22;;;6.10;99.90;;;;;;5046673;28;20223;-69
2023/02/12 08:13:32;;;;;;;4.85;3.65;;;6.10;99.90;;;;;;5046523;28;20286;-69
2023/02/12 08:16:20;;;;;;;3.88;3.55;;;6.10;99.90;;;;;;5050444;28;20232;-69
2023/02/12 08:19:08;;;;;;;5.10;3.70;;;6.10;99.90;;;;;;5034475;28;20237;-69
2023/02/12 08:22:05;;;;;;;4.13;3.25;;;6.10;99.90;;;;;;5057239;28;20227;-69
2023/02/12 08:24:52;;;;;;;4.95;3.35;;;6.10;99.90;;;;;;5042351;28;20302;-69
2023/02/12 08:27:43;;;;;;;5.22;4.05;;;6.10;99.90;;;;;;5047517;28;20728;-69
2023/02/12 08:30:30;;;;;;;2.83;2.58;;;6.10;99.90;;;;;;5042886;28;20235;-69
2023/02/12 08:33:17;;;;;;;4.03;3.10;;;6.10;99.90;;;;;;5047545;28;20608;-69
2023/02/12 08:36:06;;;;;;;3.95;3.25;;;6.10;99.90;;;;;;5040826;28;20232;-69
2023/02/12 08:38:58;;;;;;;4.70;3.22;;;6.10;99.90;;;;;;5064286;28;20288;-69
2023/02/12 08:41:46;;;;;;;4.03;2.95;;;6.10;99.90;;;;;;5062732;28;20355;-69
2023/02/12 08:44:35;;;;;;;3.47;2.60;;;6.10;99.90;;;;;;5061790;28;20248;-69
2023/02/12 08:47:22;;;;;;;3.75;3.05;;;6.10;99.90;;;;;;5058673;28;20799;-69
2023/02/12 08:50:10;;;;;;;4.00;3.50;;;6.10;99.90;;;;;;5046874;28;20359;-69
2023/02/12 08:52:58;;;;;;;5.60;3.42;;;6.10;99.90;;;;;;5065567;28;20255;-69
2023/02/12 08:55:48;;;;;;;3.80;2.90;;;6.10;99.90;;;;;;5058316;28;20236;-69
2023/02/12 08:58:37;;;;;;;4.97;3.10;;;6.10;99.90;;;;;;5051876;28;20762;-69
2023/02/12 09:01:27;;;;;;;4.38;3.03;;;6.10;99.90;;;;;;5047978;28;20221;-69
2023/02/12 09:04:17;;;;;;;5.97;3.15;;;6.10;99.90;;;;;;5045699;28;20227;-69
2023/02/12 09:07:03;;;;;;;5.07;3.75;;;6.10;99.90;;;;;;5046961;28;20208;-69
2023/02/12 09:09:54;;;;;;;3.20;2.80;;;6.10;99.90;;;;;;5067488;28;20637;-69
2023/02/12 09:12:41;;;;;;;3.17;2.88;;;6.10;99.90;;;;;;5049203;28;20211;-69
2023/02/12 09:15:28;;;;;;;3.55;3.00;;;6.10;99.90;;;;;;5049455;28;20228;-69
2023/02/12 09:18:18;;;;;;;3.80;2.88;;;6.10;99.90;;;;;;5051044;28;20223;-69
2023/02/12 09:21:07;;;;;;;4.40;3.15;;;6.10;99.90;;;;;;5052514;28;20224;-69
2023/02/12 09:23:56;;;;;;;2.88;2.63;;;6.10;99.90;;;;;;5047400;28;20595;-69
2023/02/12 09:26:43;;;;;;;3.20;2.90;;;6.10;99.90;;;;;;5060422;28;20691;-69
2023/02/12 09:29:30;;;;;;;4.50;2.88;;;6.10;99.90;;;;;;5046966;28;20226;-69
2023/02/12 09:32:17;;;;;;;4.18;3.03;;;6.10;99.90;;;;;;5047414;28;20259;-69
2023/02/12 09:35:07;;;;;;;2.60;2.40;;;6.10;99.90;;;;;;5044785;28;20255;-69
2023/02/12 09:37:54;;;;;;;3.90;3.30;;;6.10;99.90;;;;;;5060445;28;20297;-69
2023/02/12 09:40:51;;;;;;;4.35;2.97;;;6.10;99.90;;;;;;5051223;28;20715;-69
2023/02/12 09:43:44;;;;;;;3.42;3.08;;;6.10;99.90;;;;;;5050783;28;20298;-69
2023/02/12 09:46:35;;;;;;;4.35;3.50;;;6.10;99.90;;;;;;5049842;28;20550;-69
2023/02/12 09:49:47;;;;;;;4.55;3.65;;;6.10;99.90;;;;;;5050282;28;20225;-69
2023/02/12 09:52:36;;;;;;;3.92;2.65;;;6.10;99.90;;;;;;5046668;28;20707;-69
2023/02/12 09:55:28;;;;;;;3.55;2.88;;;6.10;99.90;;;;;;5046852;28;20619;-69
2023/02/12 09:58:20;;;;;;;3.88;3.13;;;6.20;99.90;;;;;;5049017;28;20216;-69
2023/02/12 10:01:12;;;;;;;6.00;3.45;;;6.10;99.90;;;;;;5046161;28;20213;-72
2023/02/12 10:04:01;;;;;;;4.90;3.60;;;6.10;99.90;;;;;;5048477;28;20224;-72
2023/02/12 10:07:02;;;;;;;4.45;3.00;;;6.10;99.90;;;;;;5043648;28;20348;-72
2023/02/12 10:10:14;;;;;;;3.97;3.17;;;6.10;99.90;;;;;;5041219;28;20223;-72
2023/02/12 10:13:05;;;;;;;4.38;3.15;;;6.10;99.90;;;;;;5044465;28;20208;-72
2023/02/12 10:16:00;;;;;;;4.65;2.97;;;6.10;99.90;;;;;;5050023;28;20317;-72
2023/02/12 10:19:04;;;;;;;5.13;3.20;;;6.20;99.90;;;;;;5045041;28;20310;-72
2023/02/12 10:21:59;;;;;;;5.70;3.53;;;6.10;99.90;;;;;;5043219;28;20342;-72
2023/02/12 10:25:02;;;;;;;5.13;3.67;;;6.10;99.90;;;;;;5044467;28;20281;-72
2023/02/12 10:27:50;;;;;;;4.20;3.40;;;6.10;99.90;;;;;;5047922;28;20258;-72
2023/02/12 10:30:43;;;;;;;3.80;2.70;;;6.10;99.90;;;;;;5048151;28;20766;-72
2023/02/12 10:33:35;;;;;;;3.90;3.40;;;6.10;99.90;;;;;;5045476;28;20219;-72
2023/02/12 10:36:35;;;;;;;4.60;3.20;;;6.10;99.90;;;;;;5050323;28;20231;-72
2023/02/12 10:39:26;;;;;;;6.63;4.35;;;6.20;99.90;;;;;;5050084;28;20650;-72
2023/02/12 10:42:18;;;;;;;5.28;3.60;;;6.20;99.90;;;;;;5063495;28;20362;-72
2023/02/12 10:45:06;;;;;;;5.25;3.28;;;6.10;99.90;;;;;;5042270;28;20658;-72
2023/02/12 10:48:01;;;;;;;4.72;3.40;;;6.20;99.90;;;;;;5035657;28;20677;-72
2023/02/12 10:51:15;;;;;;;4.95;3.50;;;6.20;99.90;;;;;;5059923;28;20603;-72
2023/02/12 10:54:34;;;;;;;4.43;3.50;;;6.10;99.90;;;;;;5046757;28;20801;-72
2023/02/12 10:57:24;;;;;;;5.10;3.88;;;6.10;99.90;;;;;;5059588;28;20220;-72
2023/02/12 11:00:24;;;;;;;4.07;3.30;;;6.20;99.90;;;;;;5043912;28;20317;-72
2023/02/12 11:03:22;;;;;;;5.93;3.78;;;6.10;99.90;;;;;;5043622;28;20201;-72
2023/02/12 11:06:13;;;;;;;4.82;3.00;;;6.20;99.90;;;;;;5048289;28;20620;-72
2023/02/12 11:09:01;;;;;;;6.85;4.28;;;6.20;99.90;;;;;;5037564;28;20944;-71
2023/02/12 11:11:48;;;;;;;5.35;4.43;;;6.20;99.90;;;;;;5056230;28;20243;-72
2023/02/12 11:14:38;;;;;;;5.25;3.30;;;6.20;99.90;;;;;;5047424;28;20240;-72
2023/02/12 11:17:29;;;;;;;6.00;3.88;;;6.20;99.90;;;;;;5064656;28;20223;-72
2023/02/12 11:20:28;;;;;;;5.10;3.40;;;6.20;99.90;;;;;;5043916;28;20777;-72
2023/02/12 11:23:27;;;;;;;4.75;4.20;;;6.20;99.90;;;;;;5059925;28;20370;-72
2023/02/12 11:26:27;;;;;;;6.70;4.47;;;6.20;99.90;;;;;;5048262;28;20224;-72
2023/02/12 11:29:20;;;;;;;5.45;4.90;;;6.20;99.90;;;;;;5050317;28;20603;-72
2023/02/12 11:32:20;;;;;;;6.90;5.10;;;6.20;99.90;;;;;;5050338;28;20208;-72
2023/02/12 11:35:14;;;;;;;7.25;4.85;;;6.20;99.90;;;;;;5047616;28;20609;-72
2023/02/12 11:38:01;;;;;;;5.90;4.10;;;6.20;99.90;;;;;;5045866;28;20216;-72
2023/02/12 11:40:49;;;;;;;4.90;3.97;;;6.20;99.90;;;;;;5049889;28;20302;-72
2023/02/12 11:43:38;;;;;;;4.85;3.80;;;6.20;99.90;;;;;;5048602;28;20285;-72
2023/02/12 11:46:27;;;;;;;7.90;5.95;;;6.20;99.90;;;;;;5050037;28;20230;-72
2023/02/12 11:49:22;;;;;;;7.38;5.28;;;6.20;99.90;;;;;;5043132;28;20359;-72
2023/02/12 11:52:21;;;;;;;9.35;5.63;;;6.20;99.90;;;;;;5050640;28;20268;-72
2023/02/12 11:55:20;;;;;;;9.13;5.88;;;6.20;99.90;;;;;;5043329;28;20445;-72
2023/02/12 11:58:15;;;;;;;6.35;3.92;;;6.20;99.90;;;;;;5059574;28;20588;-72
2023/02/12 12:01:09;;;;;;;6.47;5.03;;;6.20;99.90;;;;;;5044345;28;20224;-72
2023/02/12 12:04:03;;;;;;;6.65;5.05;;;6.20;99.90;;;;;;5046531;28;20275;-72
2023/02/12 12:06:57;;;;;;;6.78;4.20;;;6.20;99.90;;;;;;5037518;28;20228;-72
2023/02/12 12:09:50;;;;;;;8.32;5.53;;;6.20;99.90;;;;;;5046407;28;20374;-72
2023/02/12 12:12:41;;;;;;;7.55;5.00;;;6.20;99.90;;;;;;5046272;28;20262;-72
2023/02/12 12:22:00;;;;;;;6.53;4.78;;;6.20;99.90;;;;;;5046618;28;20211;-72
2023/02/12 12:24:56;;;;;;;7.45;5.78;;;6.20;99.90;;;;;;5054409;28;20219;-72
2023/02/12 12:28:05;;;;;;;6.53;4.55;;;6.30;99.90;;;;;;5044414;28;20219;-72
2023/02/12 12:30:59;;;;;;;6.85;4.82;;;6.30;99.90;;;;;;5056940;28;20266;-72
2023/02/12 12:33:50;;;;;;;7.43;5.05;;;6.30;99.90;;;;;;5048786;28;20224;-72
2023/02/12 12:37:06;;;;;;;6.38;4.45;;;6.30;99.90;;;;;;5050789;28;20208;-72
2023/02/12 12:40:09;;;;;;;7.70;4.32;;;6.30;99.90;;;;;;5045653;28;20719;-72
2023/02/12 12:43:09;;;;;;;8.77;5.35;;;6.30;99.90;;;;;;5047019;28;20204;-72
2023/02/12 12:46:28;;;;;;;5.80;4.72;;;6.30;99.90;;;;;;5046451;28;20228;-72
2023/02/12 12:49:48;;;;;;;5.88;4.50;;;6.30;99.90;;;;;;5050399;28;20279;-73
2023/02/12 12:52:55;;;;;;;6.00;4.63;;;6.30;99.90;;;;;;5066784;28;20568;-72
2023/02/12 12:56:11;;;;;;;6.00;4.80;;;6.30;99.90;;;;;;5067202;28;20274;-72
2023/02/12 12:59:26;;;;;;;7.03;5.10;;;6.30;99.90;;;;;;5052148;28;20208;-72
2023/02/12 13:02:43;;;;;;;7.47;5.40;;;6.30;99.90;;;;;;5045565;28;20600;-72
2023/02/12 13:05:55;;;;;;;6.32;4.68;;;6.30;99.90;;;;;;5064242;28;20477;-72
2023/02/12 13:09:05;;;;;;;8.15;5.88;;;6.30;99.90;;;;;;5053377;28;20213;-72
2023/02/12 13:12:21;;;;;;;7.25;5.07;;;6.30;99.90;;;;;;5065915;28;20215;-71
2023/02/12 13:15:19;;;;;;;9.23;5.20;;;6.30;99.90;;;;;;5034249;28;20233;-72
2023/02/12 13:18:20;;;;;;;6.65;4.72;;;6.30;99.90;;;;;;5042238;28;20712;-72
2023/02/12 13:21:18;;;;;;;7.45;5.00;;;6.30;99.90;;;;;;5049346;28;20243;-72
2023/02/12 13:24:14;;;;;;;7.75;5.10;;;6.30;99.90;;;;;;5047644;28;20740;-72
2023/02/12 13:27:06;;;;;;;7.40;4.93;;;6.30;99.90;;;;;;5043142;28;20566;-72
2023/02/12 13:29:58;;;;;;;7.00;5.38;;;6.30;99.90;;;;;;5059593;28;20227;-72
2023/02/12 13:32:51;;;;;;;8.07;5.40;;;6.30;99.90;;;;;;5064457;28;20474;-72
2023/02/12 13:35:42;;;;;;;8.65;5.30;;;6.30;99.90;;;;;;5060633;28;20240;-72
2023/02/12 13:38:20;;;;;;;6.13;4.75;;;6.30;99.90;;;;;;5049291;28;20259;-72
2023/02/12 13:40:52;;;;;;;9.15;5.28;;;6.30;99.90;;;;;;5058815;28;20203;-72
2023/02/12 13:43:49;;;;;;;7.03;5.60;;;6.30;99.90;;;;;;5049041;28;20209;-72
2023/02/12 13:46:25;;;;;;;6.18;4.75;;;6.30;99.90;;;;;;5029281;28;20222;-72
2023/02/12 13:49:03;;;;;;;7.57;4.85;;;6.30;99.90;;;;;;5053142;28;20185;-72
2023/02/12 13:51:46;;;;;;;9.10;5.63;;;6.30;99.90;;;;;;5066527;28;20198;-72
2023/02/12 13:54:30;;;;;;;7.50;4.90;;;6.30;99.90;;;;;;5047192;28;20228;-72
2023/02/12 13:57:01;;;;;;;8.85;5.50;;;6.30;99.90;;;;;;5056026;28;20207;-72
2023/02/12 13:59:46;;;;;;;8.60;5.97;;;6.40;99.90;;;;;;5046777;28;20224;-72
2023/02/12 14:02:43;;;;;;;5.90;4.35;;;6.30;99.90;;;;;;5066842;28;20201;-72
2023/02/12 14:05:33;;;;;;;6.90;4.65;;;6.30;99.90;;;;;;5052892;28;20221;-72
2023/02/12 14:08:04;;;;;;;7.32;4.47;;;6.30;99.90;;;;;;5043183;28;20181;-72
2023/02/12 14:10:36;;;;;;;8.63;5.30;;;6.30;99.90;;;;;;5039860;28;20202;-72
2023/02/12 14:13:21;;;;;;;7.82;5.40;;;6.30;99.90;;;;;;5038940;28;20311;-72
2023/02/12 14:15:53;;;;;;;7.97;5.25;;;6.30;99.90;;;;;;5046672;28;20204;-72
2023/02/12 14:18:36;;;;;;;8.70;5.75;;;6.30;99.90;;;;;;5041963;28;20228;-72
2023/02/12 14:21:44;;;;;;;7.85;5.28;;;6.30;99.90;;;;;;5040450;28;20197;-72
2023/02/12 14:24:59;;;;;;;5.90;5.30;;;6.40;99.90;;;;;;5045723;28;20252;-72
2023/02/12 14:27:35;;;;;;;7.88;4.63;;;6.30;99.90;;;;;;5040107;28;20285;-72
2023/02/12 14:30:33;;;;;;;7.88;4.72;;;6.30;99.90;;;;;;5063689;28;20294;-72
2023/02/12 14:33:27;;;;;;;7.82;5.55;;;6.30;99.90;;;;;;5044809;28;20211;-72
2023/02/12 14:36:39;;;;;;;9.43;5.35;;;6.40;99.90;;;;;;5044984;28;20205;-72
2023/02/12 14:39:28;;;;;;;7.90;4.60;;;6.30;99.90;;;;;;5034757;28;20323;-72
2023/02/12 14:42:17;;;;;;;7.05;4.65;;;6.40;99.90;;;;;;5035560;28;20202;-72
2023/02/12 14:44:48;;;;;;;8.10;5.45;;;6.40;99.90;;;;;;5036132;28;20227;-72
2023/02/12 14:47:46;;;;;;;7.55;5.53;;;6.30;99.90;;;;;;5034974;28;20213;-72
2023/02/12 14:50:21;;;;;;;7.10;4.55;;;6.40;99.90;;;;;;5047197;28;20217;-72
2023/02/12 14:53:06;;;;;;;8.30;5.18;;;6.40;99.90;;;;;;5045585;28;20197;-72
2023/02/12 14:55:35;;;;;;;6.95;5.45;;;6.40;99.90;;;;;;5036262;28;20212;-70
2023/02/12 14:58:07;;;;;;;8.13;6.03;;;6.40;99.90;;;;;;5038077;28;20220;-72
2023/02/12 15:00:39;;;;;;;7.68;4.60;;;6.40;99.90;;;;;;5042979;28;20189;-73
2023/02/12 15:03:25;;;;;;;9.27;5.63;;;6.40;99.90;;;;;;5054523;28;20226;-72
2023/02/12 15:06:04;;;;;;;6.95;5.38;;;6.40;99.90;;;;;;5037601;28;20270;-72
2023/02/12 15:08:41;;;;;;;9.07;5.20;;;6.40;99.90;;;;;;5046526;28;20228;-72
2023/02/12 15:11:36;;;;;;;8.40;5.15;;;6.40;99.90;;;;;;5043505;28;20209;-72
2023/02/12 15:14:07;;;;;;;5.30;4.03;;;6.40;99.90;;;;;;5062349;28;20262;-72